sensor_id;sensor_type;location;lat;lon;timestamp;temperature;humidity
34542;DHT22;20784;51.332;12.410;2023-04-30T00:01:08;10.30;99.90
34542;DHT22;20784;51.332;12.410;2023-04-30T00:03:33;10.20;99.90
34542;DHT22;20784;51.332;12.410;2023-04-30T00:05:59;10.20;99.90
34542;DHT22;20784;51.332;12.410;2023-04-30T00:08:24;10.20;99.90
34542;DHT22;20784;51.332;12.410;2023-04-30T00:10:51;10.10;99.90
34542;DHT22;20784;51.332;12.410;2023-04-30T00:13:16;10.10;99.90
34542;DHT22;20784;51.332;12.410;2023-04-30T00:15:43;10.10;99.90
34542;DHT22;20784;51.332;12.410;2023-04-30T00:18:10;10.00;99.90
34542;DHT22;20784;51.332;12.410;2023-04-30T00:20:36;10.00;99.90
34542;DHT22;20784;51.332;12.410;2023-04-30T00:23:02;9.90;99.90
34542;DHT22;20784;51.332;12.410;2023-04-30T00:25:27;10.00;99.90
34542;DHT22;20784;51.332;12.410;2023-04-30T00:27:53;9.90;99.90
34542;DHT22;20784;51.332;12.410;2023-04-30T00:30:19;9.80;99.90
34542;DHT22;20784;51.332;12.410;2023-04-30T00:32:45;9.80;99.90
34542;DHT22;20784;51.332;12.410;2023-04-30T00:35:10;9.70;99.90
34542;DHT22;20784;51.332;12.410;2023-04-30T00:37:36;9.60;99.90
34542;DHT22;20784;51.332;12.410;2023-04-30T00:40:02;9.50;99.90
34542;DHT22;20784;51.332;12.410;2023-04-30T00:42:28;9.40;99.90
34542;DHT22;20784;51.332;12.410;2023-04-30T00:44:54;9.30;99.90
34542;DHT22;20784;51.332;12.410;2023-04-30T00:47:19;9.20;99.90
34542;DHT22;20784;51.332;12.410;2023-04-30T00:49:45;9.30;99.90
34542;DHT22;20784;51.332;12.410;2023-04-30T00:52:11;9.20;99.90
34542;DHT22;20784;51.332;12.410;2023-04-30T00:54:40;9.20;99.90
34542;DHT22;20784;51.332;12.410;2023-04-30T00:57:06;9.10;99.90
34542;DHT22;20784;51.332;12.410;2023-04-30T00:59:34;9.20;99.90
34542;DHT22;20784;51.332;12.410;2023-04-30T01:01:59;9.20;99.90
34542;DHT22;20784;51.332;12.410;2023-04-30T01:04:25;9.10;99.90
34542;DHT22;20784;51.332;12.410;2023-04-30T01:06:51;9.10;99.90
34542;DHT22;20784;51.332;12.410;2023-04-30T01:09:17;9.10;99.90
34542;DHT22;20784;51.332;12.410;2023-04-30T01:12:07;9.00;99.90
34542;DHT22;20784;51.332;12.410;2023-04-30T01:14:56;8.90;99.90
34542;DHT22;20784;51.332;12.410;2023-04-30T01:20:18;8.80;99.90
34542;DHT22;20784;51.332;12.410;2023-04-30T01:23:18;8.80;99.90
34542;DHT22;20784;51.332;12.410;2023-04-30T01:28:15;8.80;99.90
34542;DHT22;20784;51.332;12.410;2023-04-30T01:30:42;8.70;99.90
34542;DHT22;20784;51.332;12.410;2023-04-30T01:33:12;8.70;99.90
34542;DHT22;20784;51.332;12.410;2023-04-30T01:38:26;8.70;99.90
34542;DHT22;20784;51.332;12.410;2023-04-30T01:41:12;8.60;99.90
34542;DHT22;20784;51.332;12.410;2023-04-30T01:44:10;8.50;99.90
34542;DHT22;20784;51.332;12.410;2023-04-30T01:46:37;8.50;99.90
34542;DHT22;20784;51.332;12.410;2023-04-30T01:49:07;8.40;99.90
34542;DHT22;20784;51.332;12.410;2023-04-30T01:51:43;8.40;99.90
34542;DHT22;20784;51.332;12.410;2023-04-30T01:54:22;8.40;99.90
34542;DHT22;20784;51.332;12.410;2023-04-30T01:57:14;8.30;99.90
34542;DHT22;20784;51.332;12.410;2023-04-30T01:59:42;8.10;99.90
34542;DHT22;20784;51.332;12.410;2023-04-30T02:02:07;8.10;99.90
34542;DHT22;20784;51.332;12.410;2023-04-30T02:04:33;8.10;99.90
34542;DHT22;20784;51.332;12.410;2023-04-30T02:06:59;8.10;99.90
34542;DHT22;20784;51.332;12.410;2023-04-30T02:09:25;8.10;99.90
34542;DHT22;20784;51.332;12.410;2023-04-30T02:11:50;8.10;99.90
34542;DHT22;20784;51.332;12.410;2023-04-30T02:14:16;8.00;99.90
34542;DHT22;20784;51.332;12.410;2023-04-30T02:16:42;7.90;99.90
34542;DHT22;20784;51.332;12.410;2023-04-30T02:19:07;7.90;99.90
34542;DHT22;20784;51.332;12.410;2023-04-30T02:21:33;7.80;99.90
34542;DHT22;20784;51.332;12.410;2023-04-30T02:23:59;7.80;99.90
34542;DHT22;20784;51.332;12.410;2023-04-30T02:26:24;7.90;99.90
34542;DHT22;20784;51.332;12.410;2023-04-30T02:28:51;7.80;99.90
34542;DHT22;20784;51.332;12.410;2023-04-30T02:31:16;7.90;99.90
34542;DHT22;20784;51.332;12.410;2023-04-30T02:33:42;7.80;99.90
34542;DHT22;20784;51.332;12.410;2023-04-30T02:36:07;7.70;99.90
34542;DHT22;20784;51.332;12.410;2023-04-30T02:38:33;7.60;99.90
34542;DHT22;20784;51.332;12.410;2023-04-30T02:40:58;7.60;99.90
34542;DHT22;20784;51.332;12.410;2023-04-30T02:43:24;7.50;99.90
34542;DHT22;20784;51.332;12.410;2023-04-30T02:45:50;7.50;99.90
34542;DHT22;20784;51.332;12.410;2023-04-30T02:48:15;7.60;99.90
34542;DHT22;20784;51.332;12.410;2023-04-30T02:50:41;7.50;99.90
34542;DHT22;20784;51.332;12.410;2023-04-30T02:53:09;7.50;99.90
34542;DHT22;20784;51.332;12.410;2023-04-30T02:55:34;7.50;99.90
34542;DHT22;20784;51.332;12.410;2023-04-30T02:58:00;7.50;99.90
34542;DHT22;20784;51.332;12.410;2023-04-30T03:00:26;7.50;99.90
34542;DHT22;20784;51.332;12.410;2023-04-30T03:02:51;7.40;99.90
34542;DHT22;20784;51.332;12.410;2023-04-30T03:05:17;7.40;99.90
34542;DHT22;20784;51.332;12.410;2023-04-30T03:07:43;7.40;99.90
34542;DHT22;20784;51.332;12.410;2023-04-30T03:10:14;7.40;99.90
34542;DHT22;20784;51.332;12.410;2023-04-30T03:12:40;7.40;99.90
34542;DHT22;20784;51.332;12.410;2023-04-30T03:15:06;7.40;99.90
34542;DHT22;20784;51.332;12.410;2023-04-30T03:17:32;7.40;99.90
34542;DHT22;20784;51.332;12.410;2023-04-30T03:19:58;7.50;99.90
34542;DHT22;20784;51.332;12.410;2023-04-30T03:22:24;7.40;99.90
34542;DHT22;20784;51.332;12.410;2023-04-30T03:24:50;7.40;99.90
34542;DHT22;20784;51.332;12.410;2023-04-30T03:27:16;7.40;99.90
34542;DHT22;20784;51.332;12.410;2023-04-30T03:29:42;7.40;99.90
34542;DHT22;20784;51.332;12.410;2023-04-30T03:32:07;7.40;99.90
34542;DHT22;20784;51.332;12.410;2023-04-30T03:34:33;7.20;99.90
34542;DHT22;20784;51.332;12.410;2023-04-30T03:36:59;7.30;99.90
34542;DHT22;20784;51.332;12.410;2023-04-30T03:39:26;7.30;99.90
34542;DHT22;20784;51.332;12.410;2023-04-30T03:41:51;7.30;99.90
34542;DHT22;20784;51.332;12.410;2023-04-30T03:44:17;7.30;99.90
34542;DHT22;20784;51.332;12.410;2023-04-30T03:46:43;7.30;99.90
34542;DHT22;20784;51.332;12.410;2023-04-30T03:49:08;7.30;99.90
34542;DHT22;20784;51.332;12.410;2023-04-30T03:51:40;7.30;99.90
34542;DHT22;20784;51.332;12.410;2023-04-30T03:54:06;7.30;99.90
34542;DHT22;20784;51.332;12.410;2023-04-30T03:56:33;7.20;99.90
34542;DHT22;20784;51.332;12.410;2023-04-30T03:58:59;7.30;99.90
34542;DHT22;20784;51.332;12.410;2023-04-30T04:01:25;7.10;99.90
34542;DHT22;20784;51.332;12.410;2023-04-30T04:03:51;7.10;99.90
34542;DHT22;20784;51.332;12.410;2023-04-30T04:06:17;7.00;99.90
34542;DHT22;20784;51.332;12.410;2023-04-30T04:08:43;7.00;99.90
34542;DHT22;20784;51.332;12.410;2023-04-30T04:11:09;7.10;99.90
34542;DHT22;20784;51.332;12.410;2023-04-30T04:13:35;7.10;99.90
34542;DHT22;20784;51.332;12.410;2023-04-30T04:16:01;7.10;99.90
34542;DHT22;20784;51.332;12.410;2023-04-30T04:18:26;7.10;99.90
34542;DHT22;20784;51.332;12.410;2023-04-30T04:20:53;7.10;99.90
34542;DHT22;20784;51.332;12.410;2023-04-30T04:23:18;7.10;99.90
34542;DHT22;20784;51.332;12.410;2023-04-30T04:25:44;7.10;99.90
34542;DHT22;20784;51.332;12.410;2023-04-30T04:28:14;7.10;99.90
34542;DHT22;20784;51.332;12.410;2023-04-30T04:30:40;7.10;99.90
34542;DHT22;20784;51.332;12.410;2023-04-30T04:33:05;7.10;99.90
34542;DHT22;20784;51.332;12.410;2023-04-30T04:35:31;7.20;99.90
34542;DHT22;20784;51.332;12.410;2023-04-30T04:37:57;7.20;99.90
34542;DHT22;20784;51.332;12.410;2023-04-30T04:40:23;7.30;99.90
34542;DHT22;20784;51.332;12.410;2023-04-30T04:42:49;7.20;99.90
34542;DHT22;20784;51.332;12.410;2023-04-30T04:45:16;7.30;99.90
34542;DHT22;20784;51.332;12.410;2023-04-30T04:47:42;7.30;99.90
34542;DHT22;20784;51.332;12.410;2023-04-30T04:50:07;7.30;99.90
34542;DHT22;20784;51.332;12.410;2023-04-30T04:52:34;7.20;99.90
34542;DHT22;20784;51.332;12.410;2023-04-30T04:55:00;7.20;99.90
34542;DHT22;20784;51.332;12.410;2023-04-30T04:57:25;7.40;99.90
34542;DHT22;20784;51.332;12.410;2023-04-30T04:59:51;7.20;99.90
34542;DHT22;20784;51.332;12.410;2023-04-30T05:02:17;7.20;99.90
34542;DHT22;20784;51.332;12.410;2023-04-30T05:04:43;7.20;99.90
34542;DHT22;20784;51.332;12.410;2023-04-30T05:07:13;7.20;99.90
34542;DHT22;20784;51.332;12.410;2023-04-30T05:09:39;7.20;99.90
34542;DHT22;20784;51.332;12.410;2023-04-30T05:12:04;7.20;99.90
34542;DHT22;20784;51.332;12.410;2023-04-30T05:14:30;7.20;99.90
34542;DHT22;20784;51.332;12.410;2023-04-30T05:16:56;7.20;99.90
34542;DHT22;20784;51.332;12.410;2023-04-30T05:19:21;7.30;99.90
34542;DHT22;20784;51.332;12.410;2023-04-30T05:21:47;7.30;99.90
34542;DHT22;20784;51.332;12.410;2023-04-30T05:24:12;7.30;99.90
34542;DHT22;20784;51.332;12.410;2023-04-30T05:26:38;7.30;99.90
34542;DHT22;20784;51.332;12.410;2023-04-30T05:29:03;7.30;99.90
34542;DHT22;20784;51.332;12.410;2023-04-30T05:31:29;7.30;99.90
34542;DHT22;20784;51.332;12.410;2023-04-30T05:33:56;7.40;99.90
34542;DHT22;20784;51.332;12.410;2023-04-30T05:36:22;7.40;99.90
34542;DHT22;20784;51.332;12.410;2023-04-30T05:38:47;7.50;99.90
34542;DHT22;20784;51.332;12.410;2023-04-30T05:41:13;7.60;99.90
34542;DHT22;20784;51.332;12.410;2023-04-30T05:43:39;7.80;99.90
34542;DHT22;20784;51.332;12.410;2023-04-30T05:46:04;7.80;99.90
34542;DHT22;20784;51.332;12.410;2023-04-30T05:48:30;7.90;99.90
34542;DHT22;20784;51.332;12.410;2023-04-30T05:50:56;7.90;99.90
34542;DHT22;20784;51.332;12.410;2023-04-30T05:53:21;8.00;99.90
34542;DHT22;20784;51.332;12.410;2023-04-30T05:55:47;7.90;99.90
34542;DHT22;20784;51.332;12.410;2023-04-30T05:58:13;7.90;99.90
34542;DHT22;20784;51.332;12.410;2023-04-30T06:00:47;7.90;99.90
34542;DHT22;20784;51.332;12.410;2023-04-30T06:03:13;8.00;99.90
34542;DHT22;20784;51.332;12.410;2023-04-30T06:05:39;8.00;99.90
34542;DHT22;20784;51.332;12.410;2023-04-30T06:08:08;8.10;99.90
34542;DHT22;20784;51.332;12.410;2023-04-30T06:10:37;8.20;99.90
34542;DHT22;20784;51.332;12.410;2023-04-30T06:13:05;8.30;99.90
34542;DHT22;20784;51.332;12.410;2023-04-30T06:15:32;8.30;99.90
34542;DHT22;20784;51.332;12.410;2023-04-30T06:17:57;8.50;99.90
34542;DHT22;20784;51.332;12.410;2023-04-30T06:20:23;8.50;99.90
34542;DHT22;20784;51.332;12.410;2023-04-30T06:22:49;8.70;99.90
34542;DHT22;20784;51.332;12.410;2023-04-30T06:25:28;8.80;99.90
34542;DHT22;20784;51.332;12.410;2023-04-30T06:28:07;8.80;99.90
34542;DHT22;20784;51.332;12.410;2023-04-30T06:30:39;9.00;99.90
34542;DHT22;20784;51.332;12.410;2023-04-30T06:33:05;9.10;99.90
34542;DHT22;20784;51.332;12.410;2023-04-30T06:35:31;9.30;99.90
34542;DHT22;20784;51.332;12.410;2023-04-30T06:37:57;9.30;99.90
34542;DHT22;20784;51.332;12.410;2023-04-30T06:40:22;9.30;99.90
34542;DHT22;20784;51.332;12.410;2023-04-30T06:42:50;9.30;99.90
34542;DHT22;20784;51.332;12.410;2023-04-30T06:45:16;9.40;99.90
34542;DHT22;20784;51.332;12.410;2023-04-30T06:47:42;9.60;99.90
34542;DHT22;20784;51.332;12.410;2023-04-30T06:50:09;9.60;99.90
34542;DHT22;20784;51.332;12.410;2023-04-30T06:52:34;9.60;99.90
34542;DHT22;20784;51.332;12.410;2023-04-30T06:55:02;9.70;99.90
34542;DHT22;20784;51.332;12.410;2023-04-30T06:57:28;9.60;99.90
34542;DHT22;20784;51.332;12.410;2023-04-30T06:59:54;9.70;99.90
34542;DHT22;20784;51.332;12.410;2023-04-30T07:02:19;9.90;99.90
34542;DHT22;20784;51.332;12.410;2023-04-30T07:04:45;10.00;99.90
34542;DHT22;20784;51.332;12.410;2023-04-30T07:07:11;9.90;99.90
34542;DHT22;20784;51.332;12.410;2023-04-30T07:09:36;10.10;99.90
34542;DHT22;20784;51.332;12.410;2023-04-30T07:12:05;10.40;99.90
34542;DHT22;20784;51.332;12.410;2023-04-30T07:14:30;10.70;99.90
34542;DHT22;20784;51.332;12.410;2023-04-30T07:16:59;10.70;99.90
34542;DHT22;20784;51.332;12.410;2023-04-30T07:19:25;10.80;99.90
34542;DHT22;20784;51.332;12.410;2023-04-30T07:21:51;11.00;99.90
34542;DHT22;20784;51.332;12.410;2023-04-30T07:24:17;10.90;99.90
34542;DHT22;20784;51.332;12.410;2023-04-30T07:26:43;11.00;99.90
34542;DHT22;20784;51.332;12.410;2023-04-30T07:29:08;10.80;99.90
34542;DHT22;20784;51.332;12.410;2023-04-30T07:31:36;10.90;99.90
34542;DHT22;20784;51.332;12.410;2023-04-30T07:34:02;11.20;99.90
34542;DHT22;20784;51.332;12.410;2023-04-30T07:36:30;11.50;99.90
34542;DHT22;20784;51.332;12.410;2023-04-30T07:38:56;11.50;99.90
34542;DHT22;20784;51.332;12.410;2023-04-30T07:41:23;11.70;99.90
34542;DHT22;20784;51.332;12.410;2023-04-30T07:43:50;11.70;99.90
34542;DHT22;20784;51.332;12.410;2023-04-30T07:46:15;11.90;99.90
34542;DHT22;20784;51.332;12.410;2023-04-30T07:48:41;12.00;99.90
34542;DHT22;20784;51.332;12.410;2023-04-30T07:51:07;12.30;99.90
34542;DHT22;20784;51.332;12.410;2023-04-30T07:53:35;12.50;99.90
34542;DHT22;20784;51.332;12.410;2023-04-30T07:56:01;12.50;99.90
34542;DHT22;20784;51.332;12.410;2023-04-30T07:58:32;12.50;99.90
34542;DHT22;20784;51.332;12.410;2023-04-30T08:01:01;12.60;99.90
34542;DHT22;20784;51.332;12.410;2023-04-30T08:03:27;12.70;99.90
34542;DHT22;20784;51.332;12.410;2023-04-30T08:05:53;12.90;99.90
34542;DHT22;20784;51.332;12.410;2023-04-30T08:08:19;13.20;99.90
34542;DHT22;20784;51.332;12.410;2023-04-30T08:10:44;13.20;99.90
34542;DHT22;20784;51.332;12.410;2023-04-30T08:13:10;13.50;99.90
34542;DHT22;20784;51.332;12.410;2023-04-30T08:15:45;13.60;99.90
34542;DHT22;20784;51.332;12.410;2023-04-30T08:18:11;13.90;99.90
34542;DHT22;20784;51.332;12.410;2023-04-30T08:20:37;13.80;99.90
34542;DHT22;20784;51.332;12.410;2023-04-30T08:23:06;13.50;99.90
34542;DHT22;20784;51.332;12.410;2023-04-30T08:25:37;13.10;99.90
34542;DHT22;20784;51.332;12.410;2023-04-30T08:28:14;13.30;99.90
34542;DHT22;20784;51.332;12.410;2023-04-30T08:30:43;13.40;99.90
34542;DHT22;20784;51.332;12.410;2023-04-30T08:33:09;13.50;99.90
34542;DHT22;20784;51.332;12.410;2023-04-30T08:35:42;13.50;99.90
34542;DHT22;20784;51.332;12.410;2023-04-30T08:38:11;13.90;99.90
34542;DHT22;20784;51.332;12.410;2023-04-30T08:40:39;14.20;99.90
34542;DHT22;20784;51.332;12.410;2023-04-30T08:43:11;14.30;99.90
34542;DHT22;20784;51.332;12.410;2023-04-30T08:45:38;14.40;99.90
34542;DHT22;20784;51.332;12.410;2023-04-30T08:48:04;14.50;99.90
34542;DHT22;20784;51.332;12.410;2023-04-30T08:50:30;14.90;99.90
34542;DHT22;20784;51.332;12.410;2023-04-30T08:52:59;15.20;99.90
34542;DHT22;20784;51.332;12.410;2023-04-30T08:55:26;15.40;99.90
34542;DHT22;20784;51.332;12.410;2023-04-30T08:57:52;15.60;99.90
34542;DHT22;20784;51.332;12.410;2023-04-30T09:00:18;15.90;99.90
34542;DHT22;20784;51.332;12.410;2023-04-30T09:02:45;15.70;99.90
34542;DHT22;20784;51.332;12.410;2023-04-30T09:05:13;15.70;99.90
34542;DHT22;20784;51.332;12.410;2023-04-30T09:07:43;15.90;99.90
34542;DHT22;20784;51.332;12.410;2023-04-30T09:10:17;15.90;99.90
34542;DHT22;20784;51.332;12.410;2023-04-30T09:12:46;15.60;99.90
34542;DHT22;20784;51.332;12.410;2023-04-30T09:15:22;15.80;99.90
34542;DHT22;20784;51.332;12.410;2023-04-30T09:17:48;15.90;99.90
34542;DHT22;20784;51.332;12.410;2023-04-30T09:20:13;15.90;99.90
34542;DHT22;20784;51.332;12.410;2023-04-30T09:22:40;16.00;99.90
34542;DHT22;20784;51.332;12.410;2023-04-30T09:25:07;16.20;99.90
34542;DHT22;20784;51.332;12.410;2023-04-30T09:27:33;16.20;99.90
34542;DHT22;20784;51.332;12.410;2023-04-30T09:29:59;16.20;99.90
34542;DHT22;20784;51.332;12.410;2023-04-30T09:32:25;16.30;99.90
34542;DHT22;20784;51.332;12.410;2023-04-30T09:34:50;16.30;99.90
34542;DHT22;20784;51.332;12.410;2023-04-30T09:37:16;16.40;99.90
34542;DHT22;20784;51.332;12.410;2023-04-30T09:39:54;16.60;99.90
34542;DHT22;20784;51.332;12.410;2023-04-30T09:42:21;16.50;99.90
34542;DHT22;20784;51.332;12.410;2023-04-30T09:44:59;16.70;99.90
34542;DHT22;20784;51.332;12.410;2023-04-30T09:47:29;16.80;99.90
34542;DHT22;20784;51.332;12.410;2023-04-30T09:49:58;16.80;99.90
34542;DHT22;20784;51.332;12.410;2023-04-30T09:52:27;16.80;99.90
34542;DHT22;20784;51.332;12.410;2023-04-30T09:54:53;16.60;98.70
34542;DHT22;20784;51.332;12.410;2023-04-30T09:57:20;17.00;99.90
34542;DHT22;20784;51.332;12.410;2023-04-30T09:59:47;17.40;99.90
34542;DHT22;20784;51.332;12.410;2023-04-30T10:02:15;17.70;99.60
34542;DHT22;20784;51.332;12.410;2023-04-30T10:04:43;17.70;99.40
34542;DHT22;20784;51.332;12.410;2023-04-30T10:07:19;17.80;98.60
34542;DHT22;20784;51.332;12.410;2023-04-30T10:10:08;17.90;97.00
34542;DHT22;20784;51.332;12.410;2023-04-30T10:12:50;17.90;94.50
34542;DHT22;20784;51.332;12.410;2023-04-30T10:15:28;17.90;94.10
34542;DHT22;20784;51.332;12.410;2023-04-30T10:18:04;17.90;95.70
34542;DHT22;20784;51.332;12.410;2023-04-30T10:20:37;17.70;98.60
34542;DHT22;20784;51.332;12.410;2023-04-30T10:23:03;17.70;99.90
34542;DHT22;20784;51.332;12.410;2023-04-30T10:25:30;18.10;99.70
34542;DHT22;20784;51.332;12.410;2023-04-30T10:27:57;18.20;99.90
34542;DHT22;20784;51.332;12.410;2023-04-30T10:30:22;18.40;99.90
34542;DHT22;20784;51.332;12.410;2023-04-30T10:36:04;19.00;97.00
34542;DHT22;20784;51.332;12.410;2023-04-30T10:38:33;18.70;99.90
34542;DHT22;20784;51.332;12.410;2023-04-30T10:41:01;18.50;98.40
34542;DHT22;20784;51.332;12.410;2023-04-30T10:43:29;18.60;98.40
34542;DHT22;20784;51.332;12.410;2023-04-30T10:45:57;18.70;99.90
34542;DHT22;20784;51.332;12.410;2023-04-30T10:48:24;18.80;98.10
34542;DHT22;20784;51.332;12.410;2023-04-30T10:50:53;19.00;99.50
34542;DHT22;20784;51.332;12.410;2023-04-30T10:53:25;18.90;94.60
34542;DHT22;20784;51.332;12.410;2023-04-30T10:56:03;18.80;97.00
34542;DHT22;20784;51.332;12.410;2023-04-30T10:58:38;18.60;93.70
34542;DHT22;20784;51.332;12.410;2023-04-30T11:01:07;18.60;95.60
34542;DHT22;20784;51.332;12.410;2023-04-30T11:03:38;19.00;97.00
34542;DHT22;20784;51.332;12.410;2023-04-30T11:06:14;19.10;95.90
34542;DHT22;20784;51.332;12.410;2023-04-30T11:08:44;19.10;92.40
34542;DHT22;20784;51.332;12.410;2023-04-30T11:11:17;19.10;91.20
34542;DHT22;20784;51.332;12.410;2023-04-30T11:13:47;19.10;93.10
34542;DHT22;20784;51.332;12.410;2023-04-30T11:16:15;19.20;91.20
34542;DHT22;20784;51.332;12.410;2023-04-30T11:18:46;19.00;92.70
34542;DHT22;20784;51.332;12.410;2023-04-30T11:21:12;18.90;93.30
34542;DHT22;20784;51.332;12.410;2023-04-30T11:23:47;19.00;95.50
34542;DHT22;20784;51.332;12.410;2023-04-30T11:26:16;19.60;95.50
34542;DHT22;20784;51.332;12.410;2023-04-30T11:28:49;19.30;90.40
34542;DHT22;20784;51.332;12.410;2023-04-30T11:31:19;19.40;90.60
34542;DHT22;20784;51.332;12.410;2023-04-30T11:33:45;19.40;90.90
34542;DHT22;20784;51.332;12.410;2023-04-30T11:36:10;19.50;90.70
34542;DHT22;20784;51.332;12.410;2023-04-30T11:38:38;19.60;90.60
34542;DHT22;20784;51.332;12.410;2023-04-30T11:41:04;19.60;91.10
34542;DHT22;20784;51.332;12.410;2023-04-30T11:43:31;19.50;91.60
34542;DHT22;20784;51.332;12.410;2023-04-30T11:48:24;20.00;93.10
34542;DHT22;20784;51.332;12.410;2023-04-30T11:50:49;20.00;89.80
34542;DHT22;20784;51.332;12.410;2023-04-30T11:53:18;19.60;84.80
34542;DHT22;20784;51.332;12.410;2023-04-30T11:55:52;19.50;90.70
34542;DHT22;20784;51.332;12.410;2023-04-30T11:58:22;20.00;91.50
34542;DHT22;20784;51.332;12.410;2023-04-30T12:00:49;20.40;87.20
34542;DHT22;20784;51.332;12.410;2023-04-30T12:03:16;20.40;85.90
34542;DHT22;20784;51.332;12.410;2023-04-30T12:05:42;20.10;83.50
34542;DHT22;20784;51.332;12.410;2023-04-30T12:08:08;20.40;84.80
34542;DHT22;20784;51.332;12.410;2023-04-30T12:10:34;20.30;84.80
34542;DHT22;20784;51.332;12.410;2023-04-30T12:13:00;19.90;84.30
34542;DHT22;20784;51.332;12.410;2023-04-30T12:15:27;19.80;80.90
34542;DHT22;20784;51.332;12.410;2023-04-30T12:17:58;19.50;78.70
34542;DHT22;20784;51.332;12.410;2023-04-30T12:20:25;19.00;76.00
34542;DHT22;20784;51.332;12.410;2023-04-30T12:22:51;18.90;76.80
34542;DHT22;20784;51.332;12.410;2023-04-30T12:25:19;19.10;77.90
34542;DHT22;20784;51.332;12.410;2023-04-30T12:27:46;19.50;77.50
34542;DHT22;20784;51.332;12.410;2023-04-30T12:30:12;19.80;78.30
34542;DHT22;20784;51.332;12.410;2023-04-30T12:32:44;19.80;73.20
34542;DHT22;20784;51.332;12.410;2023-04-30T12:35:18;19.60;75.30
34542;DHT22;20784;51.332;12.410;2023-04-30T12:37:52;19.30;76.80
34542;DHT22;20784;51.332;12.410;2023-04-30T12:40:20;19.50;79.40
34542;DHT22;20784;51.332;12.410;2023-04-30T12:42:46;19.40;79.20
34542;DHT22;20784;51.332;12.410;2023-04-30T12:45:37;19.20;80.50
34542;DHT22;20784;51.332;12.410;2023-04-30T12:47:58;19.30;77.90
34542;DHT22;20784;51.332;12.410;2023-04-30T12:50:24;19.40;78.60
34542;DHT22;20784;51.332;12.410;2023-04-30T12:52:50;19.60;77.90
34542;DHT22;20784;51.332;12.410;2023-04-30T12:55:17;19.50;74.90
34542;DHT22;20784;51.332;12.410;2023-04-30T13:00:41;19.60;79.70
34542;DHT22;20784;51.332;12.410;2023-04-30T13:03:07;19.70;81.90
34542;DHT22;20784;51.332;12.410;2023-04-30T13:05:32;19.70;82.90
34542;DHT22;20784;51.332;12.410;2023-04-30T13:08:01;19.70;80.90
34542;DHT22;20784;51.332;12.410;2023-04-30T13:10:34;19.90;81.00
34542;DHT22;20784;51.332;12.410;2023-04-30T13:12:59;19.50;81.20
34542;DHT22;20784;51.332;12.410;2023-04-30T13:15:25;19.80;81.70
34542;DHT22;20784;51.332;12.410;2023-04-30T13:17:54;19.90;79.70
34542;DHT22;20784;51.332;12.410;2023-04-30T13:20:27;19.70;80.00
34542;DHT22;20784;51.332;12.410;2023-04-30T13:22:53;19.70;81.50
34542;DHT22;20784;51.332;12.410;2023-04-30T13:25:22;19.90;85.40
34542;DHT22;20784;51.332;12.410;2023-04-30T13:27:48;19.90;82.40
34542;DHT22;20784;51.332;12.410;2023-04-30T13:30:13;19.90;82.40
34542;DHT22;20784;51.332;12.410;2023-04-30T13:32:39;19.80;84.80
34542;DHT22;20784;51.332;12.410;2023-04-30T13:35:05;19.70;83.90
34542;DHT22;20784;51.332;12.410;2023-04-30T13:37:31;19.30;85.20
34542;DHT22;20784;51.332;12.410;2023-04-30T13:39:57;19.40;85.50
34542;DHT22;20784;51.332;12.410;2023-04-30T13:42:27;19.40;85.60
34542;DHT22;20784;51.332;12.410;2023-04-30T13:44:53;19.30;84.80
34542;DHT22;20784;51.332;12.410;2023-04-30T13:47:18;19.20;82.50
34542;DHT22;20784;51.332;12.410;2023-04-30T13:49:45;19.10;86.00
34542;DHT22;20784;51.332;12.410;2023-04-30T13:52:11;19.20;84.70
34542;DHT22;20784;51.332;12.410;2023-04-30T13:54:37;19.00;85.20
34542;DHT22;20784;51.332;12.410;2023-04-30T13:57:03;18.80;83.30
34542;DHT22;20784;51.332;12.410;2023-04-30T13:59:29;18.80;87.10
34542;DHT22;20784;51.332;12.410;2023-04-30T14:01:56;19.00;87.20
34542;DHT22;20784;51.332;12.410;2023-04-30T14:04:21;18.80;88.90
34542;DHT22;20784;51.332;12.410;2023-04-30T14:06:47;18.90;89.40
34542;DHT22;20784;51.332;12.410;2023-04-30T14:09:13;19.10;86.70
34542;DHT22;20784;51.332;12.410;2023-04-30T14:11:40;19.10;88.20
34542;DHT22;20784;51.332;12.410;2023-04-30T14:14:07;19.30;84.40
34542;DHT22;20784;51.332;12.410;2023-04-30T14:16:33;19.20;84.60
34542;DHT22;20784;51.332;12.410;2023-04-30T14:18:59;19.10;85.40
34542;DHT22;20784;51.332;12.410;2023-04-30T14:21:34;19.20;83.80
34542;DHT22;20784;51.332;12.410;2023-04-30T14:24:08;19.10;81.00
34542;DHT22;20784;51.332;12.410;2023-04-30T14:26:34;19.00;77.90
34542;DHT22;20784;51.332;12.410;2023-04-30T14:28:59;18.70;76.40
34542;DHT22;20784;51.332;12.410;2023-04-30T14:31:25;18.60;76.20
34542;DHT22;20784;51.332;12.410;2023-04-30T14:33:51;18.40;72.00
34542;DHT22;20784;51.332;12.410;2023-04-30T14:36:19;18.20;73.10
34542;DHT22;20784;51.332;12.410;2023-04-30T14:38:45;18.20;81.00
34542;DHT22;20784;51.332;12.410;2023-04-30T14:41:11;18.30;80.00
34542;DHT22;20784;51.332;12.410;2023-04-30T14:43:37;18.10;78.30
34542;DHT22;20784;51.332;12.410;2023-04-30T14:46:03;18.00;73.20
34542;DHT22;20784;51.332;12.410;2023-04-30T14:48:28;18.20;76.20
34542;DHT22;20784;51.332;12.410;2023-04-30T14:50:54;18.40;75.40
34542;DHT22;20784;51.332;12.410;2023-04-30T14:53:19;18.40;72.90
34542;DHT22;20784;51.332;12.410;2023-04-30T14:55:45;18.30;73.00
34542;DHT22;20784;51.332;12.410;2023-04-30T14:58:10;18.30;72.10
34542;DHT22;20784;51.332;12.410;2023-04-30T15:00:36;18.20;70.20
34542;DHT22;20784;51.332;12.410;2023-04-30T15:03:02;18.20;69.60
34542;DHT22;20784;51.332;12.410;2023-04-30T15:05:28;18.20;72.00
34542;DHT22;20784;51.332;12.410;2023-04-30T15:07:53;18.00;73.50
34542;DHT22;20784;51.332;12.410;2023-04-30T15:10:19;18.10;75.40
34542;DHT22;20784;51.332;12.410;2023-04-30T15:12:45;18.20;75.30
34542;DHT22;20784;51.332;12.410;2023-04-30T15:15:11;18.30;77.20
34542;DHT22;20784;51.332;12.410;2023-04-30T15:17:39;18.20;73.30
34542;DHT22;20784;51.332;12.410;2023-04-30T15:20:06;18.20;73.50
34542;DHT22;20784;51.332;12.410;2023-04-30T15:22:35;17.70;74.00
34542;DHT22;20784;51.332;12.410;2023-04-30T15:25:00;17.50;76.50
34542;DHT22;20784;51.332;12.410;2023-04-30T15:27:27;17.60;77.40
34542;DHT22;20784;51.332;12.410;2023-04-30T15:29:52;17.70;77.10
34542;DHT22;20784;51.332;12.410;2023-04-30T15:32:18;17.80;78.70
34542;DHT22;20784;51.332;12.410;2023-04-30T15:34:44;17.80;78.70
34542;DHT22;20784;51.332;12.410;2023-04-30T15:37:10;18.00;77.90
34542;DHT22;20784;51.332;12.410;2023-04-30T15:39:36;18.10;78.10
34542;DHT22;20784;51.332;12.410;2023-04-30T15:42:02;18.00;80.00